createdAt,value
2023-02-01T00:00:25.952Z,-1.39
2023-02-01T00:03:15.816Z,-1.42
2023-02-01T00:05:44.260Z,-1.44
2023-02-01T00:08:15.481Z,-1.48
2023-02-01T00:10:43.997Z,-1.52
2023-02-01T00:13:12.216Z,-1.55
2023-02-01T00:15:40.571Z,-1.59
2023-02-01T00:18:09.341Z,-1.65
2023-02-01T00:20:38.738Z,-1.71
2023-02-01T00:23:08.890Z,-1.76
2023-02-01T00:25:37.630Z,-1.81
2023-02-01T00:28:06.884Z,-1.85
2023-02-01T00:30:36.078Z,-1.91
2023-02-01T00:33:05.491Z,-1.95
2023-02-01T00:35:36.931Z,-1.97
2023-02-01T00:38:07.067Z,-1.96
2023-02-01T00:40:46.130Z,-1.94
2023-02-01T00:44:16.687Z,-1.91
2023-02-01T00:46:45.850Z,-1.87
2023-02-01T00:49:13.960Z,-1.85
2023-02-01T00:51:42.100Z,-1.82
2023-02-01T00:54:10.416Z,-1.81
2023-02-01T00:56:39.365Z,-1.81
2023-02-01T00:59:07.997Z,-1.80
2023-02-01T01:01:36.661Z,-1.80
2023-02-01T01:04:05.849Z,-1.79
2023-02-01T01:06:35.053Z,-1.78
2023-02-01T01:09:07.651Z,-1.78
2023-02-01T01:11:38.024Z,-1.76
2023-02-01T01:14:08.983Z,-1.75
2023-02-01T01:16:37.806Z,-1.74
2023-02-01T01:19:06.424Z,-1.73
2023-02-01T01:21:35.199Z,-1.72
2023-02-01T01:24:04.592Z,-1.69
2023-02-01T01:26:35.076Z,-1.66
2023-02-01T01:29:07.351Z,-1.63
2023-02-01T01:31:36.499Z,-1.61
2023-02-01T01:34:05.337Z,-1.60
2023-02-01T01:36:34.002Z,-1.59
2023-02-01T01:39:03.132Z,-1.58
2023-02-01T01:41:34.158Z,-1.55
2023-02-01T01:44:47.338Z,-1.54
2023-02-01T01:47:18.632Z,-1.51
2023-02-01T01:49:47.769Z,-1.52
2023-02-01T01:52:17.511Z,-1.52
2023-02-01T01:54:52.826Z,-1.51
2023-02-01T01:57:33.443Z,-1.52
2023-02-01T02:00:17.610Z,-1.51
2023-02-01T02:02:50.398Z,-1.51
2023-02-01T02:05:20.377Z,-1.53
2023-02-01T02:07:51.410Z,-1.56
2023-02-01T02:10:20.895Z,-1.61
2023-02-01T02:12:50.888Z,-1.67
2023-02-01T02:15:19.164Z,-1.71
2023-02-01T02:18:02.282Z,-1.74
2023-02-01T02:20:46.690Z,-1.76
2023-02-01T02:23:24.463Z,-1.77
2023-02-01T02:26:23.190Z,-1.77
2023-02-01T02:29:09.466Z,-1.76
2023-02-01T02:31:49.563Z,-1.74
2023-02-01T02:34:41.441Z,-1.69
2023-02-01T02:37:32.795Z,-1.62
2023-02-01T02:40:41.455Z,-1.55
2023-02-01T02:43:42.939Z,-1.51
2023-02-01T02:47:07.125Z,-1.49
2023-02-01T02:50:23.374Z,-1.45
2023-02-01T02:53:18.946Z,-1.37
2023-02-01T02:55:47.752Z,-1.27
2023-02-01T02:58:36.455Z,-1.17
2023-02-01T03:02:12.676Z,-1.08
2023-02-01T03:04:42.500Z,-0.97
2023-02-01T03:07:36.655Z,-0.92
2023-02-01T03:10:11.708Z,-0.86
2023-02-01T03:12:58.683Z,-0.79
2023-02-01T03:15:39.036Z,-0.73
2023-02-01T03:18:29.732Z,-0.66
2023-02-01T03:21:00.117Z,-0.58
2023-02-01T03:23:35.220Z,-0.55
2023-02-01T03:26:07.185Z,-0.53
2023-02-01T03:28:37.669Z,-0.52
2023-02-01T03:31:05.955Z,-0.53
2023-02-01T03:33:34.644Z,-0.53
2023-02-01T03:36:11.335Z,-0.54
2023-02-01T03:38:44.594Z,-0.57
2023-02-01T03:41:41.551Z,-0.60
2023-02-01T03:44:31.801Z,-0.64
2023-02-01T03:47:25.203Z,-0.70
2023-02-01T03:50:03.363Z,-0.76
2023-02-01T03:52:53.870Z,-0.85
2023-02-01T03:55:24.685Z,-0.94
2023-02-01T03:58:20.684Z,-1.02
2023-02-01T04:00:53.532Z,-1.10
2023-02-01T04:03:23.128Z,-1.19
2023-02-01T04:05:52.958Z,-1.26
2023-02-01T04:08:22.998Z,-1.33
2023-02-01T04:10:51.207Z,-1.39
2023-02-01T04:13:19.482Z,-1.43
2023-02-01T04:15:50.956Z,-1.49
2023-02-01T04:18:20.194Z,-1.53
2023-02-01T04:20:48.212Z,-1.58
2023-02-01T04:23:17.136Z,-1.62
2023-02-01T04:25:45.991Z,-1.65
2023-02-01T04:28:15.631Z,-1.69
2023-02-01T04:30:44.625Z,-1.71
2023-02-01T04:33:15.093Z,-1.72
2023-02-01T04:35:43.437Z,-1.72
2023-02-01T04:38:12.106Z,-1.71
2023-02-01T04:40:40.856Z,-1.70
2023-02-01T04:43:09.228Z,-1.68
2023-02-01T04:45:37.599Z,-1.69
2023-02-01T04:48:06.509Z,-1.68
2023-02-01T04:50:34.624Z,-1.67
2023-02-01T04:53:02.898Z,-1.65
2023-02-01T04:55:31.881Z,-1.64
2023-02-01T04:58:00.131Z,-1.63
2023-02-01T05:00:29.341Z,-1.61
2023-02-01T05:02:57.501Z,-1.60
2023-02-01T05:05:25.978Z,-1.58
2023-02-01T05:07:55.508Z,-1.56
2023-02-01T05:10:23.902Z,-1.55
2023-02-01T05:13:12.804Z,-1.53
2023-02-01T05:16:01.504Z,-1.51
2023-02-01T05:18:30.904Z,-1.47
2023-02-01T05:20:59.272Z,-1.44
2023-02-01T05:23:33.487Z,-1.43
2023-02-01T05:26:03.119Z,-1.41
2023-02-01T05:28:31.279Z,-1.37
2023-02-01T05:30:59.728Z,-1.33
2023-02-01T05:33:28.323Z,-1.30
2023-02-01T05:35:56.420Z,-1.28
2023-02-01T05:38:24.582Z,-1.26
2023-02-01T05:40:53.778Z,-1.24
2023-02-01T05:43:22.854Z,-1.23
2023-02-01T05:45:53.838Z,-1.23
2023-02-01T05:48:22.024Z,-1.22
2023-02-01T05:50:50.209Z,-1.22
2023-02-01T05:53:18.326Z,-1.22
2023-02-01T05:55:47.108Z,-1.22
2023-02-01T05:58:16.492Z,-1.22
2023-02-01T06:00:45.214Z,-1.21
2023-02-01T06:03:14.396Z,-1.21
2023-02-01T06:05:46.120Z,-1.21
2023-02-01T06:08:15.016Z,-1.21
2023-02-01T06:10:44.304Z,-1.22
2023-02-01T06:13:12.511Z,-1.22
2023-02-01T06:15:43.597Z,-1.19
2023-02-01T06:18:18.183Z,-1.15
2023-02-01T06:20:53.684Z,-1.11
2023-02-01T06:23:26.518Z,-1.05
2023-02-01T06:26:05.468Z,-0.98
2023-02-01T06:28:37.260Z,-0.92
2023-02-01T06:31:09.449Z,-0.85
2023-02-01T06:33:40.836Z,-0.79
2023-02-01T06:36:15.109Z,-0.73
2023-02-01T06:38:45.895Z,-0.64
2023-02-01T06:41:23.645Z,-0.56
2023-02-01T06:44:11.948Z,-0.60
2023-02-01T06:46:40.863Z,-0.65
2023-02-01T06:49:15.083Z,-0.69
2023-02-01T06:51:46.357Z,-0.66
2023-02-01T06:54:24.514Z,-0.64
2023-02-01T06:56:52.805Z,-0.63
2023-02-01T06:59:21.022Z,-0.58
2023-02-01T07:01:49.080Z,-0.53
2023-02-01T07:04:17.251Z,-0.52
2023-02-01T07:06:45.604Z,-0.56
2023-02-01T07:09:14.834Z,-0.62
2023-02-01T07:11:45.065Z,-0.61
2023-02-01T07:14:14.122Z,-0.58
2023-02-01T07:16:42.522Z,-0.51
2023-02-01T07:19:11.278Z,-0.41
2023-02-01T07:21:39.380Z,-0.38
2023-02-01T07:24:07.791Z,-0.41
2023-02-01T07:26:35.882Z,-0.38
2023-02-01T07:29:03.969Z,-0.32
2023-02-01T07:31:32.764Z,-0.30
2023-02-01T07:34:02.568Z,-0.33
2023-02-01T07:36:30.922Z,-0.39
2023-02-01T07:39:00.500Z,-0.42
2023-02-01T07:41:28.808Z,-0.49
2023-02-01T07:43:57.890Z,-0.56
2023-02-01T07:46:26.479Z,-0.60
2023-02-01T07:48:55.022Z,-0.63
2023-02-01T07:51:23.217Z,-0.65
2023-02-01T07:53:51.313Z,-0.65
2023-02-01T07:56:23.468Z,-0.65
2023-02-01T07:58:54.038Z,-0.64
2023-02-01T08:01:25.694Z,-0.63
2023-02-01T08:04:02.913Z,-0.61
2023-02-01T08:06:34.987Z,-0.62
2023-02-01T08:09:04.798Z,-0.61
2023-02-01T08:11:33.988Z,-0.61
2023-02-01T08:14:04.716Z,-0.62
2023-02-01T08:16:40.362Z,-0.61
2023-02-01T08:19:18.897Z,-0.60
2023-02-01T08:21:50.245Z,-0.58
2023-02-01T08:24:20.555Z,-0.55
2023-02-01T08:26:50.401Z,-0.53
2023-02-01T08:29:20.082Z,-0.51
2023-02-01T08:31:49.774Z,-0.48
2023-02-01T08:35:18.972Z,-0.46
2023-02-01T08:38:54.079Z,-0.43
2023-02-01T08:41:28.383Z,-0.41
2023-02-01T08:43:58.929Z,-0.39
2023-02-01T08:46:30.853Z,-0.37
2023-02-01T08:49:09.682Z,-0.31
2023-02-01T08:52:16.307Z,-0.25
2023-02-01T08:55:23.932Z,-0.18
2023-02-01T08:58:18.986Z,-0.10
2023-02-01T09:00:49.914Z,-0.02
2023-02-01T09:03:56.803Z,0.02
2023-02-01T09:06:30.111Z,0.07
2023-02-01T09:09:01.796Z,0.13
2023-02-01T09:12:30.710Z,0.21
2023-02-01T09:15:32.962Z,0.35
2023-02-01T09:18:01.964Z,0.46
2023-02-01T09:20:30.780Z,0.54
2023-02-01T09:23:00.122Z,0.65
2023-02-01T09:25:31.707Z,0.69
2023-02-01T09:28:01.109Z,0.70
2023-02-01T09:30:31.342Z,0.72
2023-02-01T09:33:05.009Z,0.76
2023-02-01T09:35:36.141Z,0.79
2023-02-01T09:38:06.812Z,0.76
2023-02-01T09:41:07.105Z,0.78
2023-02-01T09:44:10.799Z,0.79
2023-02-01T09:46:42.908Z,0.82
2023-02-01T09:49:41.588Z,0.88
2023-02-01T09:52:17.144Z,0.98
2023-02-01T09:55:04.148Z,1.06
2023-02-01T09:57:51.632Z,1.14
2023-02-01T10:00:48.931Z,1.20
2023-02-01T10:03:24.546Z,1.30
2023-02-01T10:06:13.445Z,1.37
2023-02-01T10:09:12.617Z,1.40
2023-02-01T10:11:59.317Z,1.44
2023-02-01T10:14:56.094Z,1.47
2023-02-01T10:18:09.739Z,1.50
2023-02-01T10:20:55.370Z,1.52
2023-02-01T10:23:33.855Z,1.50
2023-02-01T10:26:25.765Z,1.43
2023-02-01T10:29:41.624Z,1.41
2023-02-01T10:33:14.150Z,1.40
2023-02-01T10:37:21.339Z,1.35
2023-02-01T10:41:18.935Z,1.34
2023-02-01T10:45:13.647Z,1.39
2023-02-01T10:49:42.513Z,1.46
2023-02-01T10:53:56.418Z,1.47
2023-02-01T10:57:30.770Z,1.49
2023-02-01T11:00:25.620Z,1.52
2023-02-01T11:02:57.993Z,1.53
2023-02-01T11:05:27.553Z,1.54
2023-02-01T11:07:57.081Z,1.56
2023-02-01T11:10:43.614Z,1.57
2023-02-01T11:13:17.580Z,1.59
2023-02-01T11:15:48.014Z,1.62
2023-02-01T11:18:19.740Z,1.63
2023-02-01T11:20:50.395Z,1.66
2023-02-01T11:23:22.915Z,1.72
2023-02-01T11:25:57.240Z,1.74
2023-02-01T11:28:30.322Z,1.74
2023-02-01T11:31:03.660Z,1.76
2023-02-01T11:33:36.294Z,1.72
2023-02-01T11:36:18.101Z,1.64
2023-02-01T11:39:08.837Z,1.60
2023-02-01T11:41:59.759Z,1.59
2023-02-01T11:44:31.809Z,1.59
2023-02-01T11:47:29.246Z,1.57
2023-02-01T11:50:03.671Z,1.58
2023-02-01T11:52:56.191Z,1.67
2023-02-01T11:55:47.089Z,1.75
2023-02-01T11:58:24.068Z,1.80
2023-02-01T12:01:04.221Z,1.86
2023-02-01T12:03:54.168Z,1.90
2023-02-01T12:06:46.505Z,1.94
2023-02-01T12:09:45.921Z,2.02
2023-02-01T12:12:30.141Z,2.07
2023-02-01T12:15:07.461Z,2.13
2023-02-01T12:18:00.935Z,2.19
2023-02-01T12:20:47.222Z,2.26
2023-02-01T12:23:37.084Z,2.30
2023-02-01T12:26:24.055Z,2.28
2023-02-01T12:29:04.235Z,2.22
2023-02-01T12:31:48.393Z,2.21
2023-02-01T12:34:28.927Z,2.16
2023-02-01T12:37:19.380Z,2.09
2023-02-01T12:40:05.845Z,2.05
2023-02-01T12:43:00.116Z,2.04
2023-02-01T12:45:36.917Z,2.02
2023-02-01T12:48:32.493Z,2.01
2023-02-01T12:51:08.493Z,2.01
2023-02-01T12:53:39.705Z,2.06
2023-02-01T12:56:14.418Z,2.16
2023-02-01T12:58:47.969Z,2.22
2023-02-01T13:01:18.936Z,2.22
2023-02-01T13:03:59.793Z,2.23
2023-02-01T13:06:34.856Z,2.18
2023-02-01T13:09:18.443Z,2.10
2023-02-01T13:11:48.770Z,2.01
2023-02-01T13:14:19.780Z,1.96
2023-02-01T13:16:52.253Z,1.93
2023-02-01T13:19:28.584Z,1.94
2023-02-01T13:22:03.008Z,1.95
2023-02-01T13:24:41.254Z,1.97
2023-02-01T13:27:13.905Z,2.01
2023-02-01T13:29:53.328Z,2.06
2023-02-01T13:33:51.529Z,2.09
2023-02-01T13:35:55.569Z,2.15
2023-02-01T13:38:56.078Z,2.22
2023-02-01T13:41:42.916Z,2.34
2023-02-01T13:44:29.047Z,2.42
2023-02-01T13:47:01.700Z,2.44
2023-02-01T13:49:33.715Z,2.45
2023-02-01T13:52:01.816Z,2.47
2023-02-01T13:54:34.143Z,2.47
2023-02-01T13:57:04.570Z,2.43
2023-02-01T13:59:50.791Z,2.38
2023-02-01T14:02:41.129Z,2.33
2023-02-01T14:05:10.797Z,2.28
2023-02-01T14:08:04.245Z,2.24
2023-02-01T14:10:56.907Z,2.19
2023-02-01T14:13:24.990Z,2.15
2023-02-01T14:16:05.290Z,2.09
2023-02-01T14:18:36.448Z,2.02
2023-02-01T14:21:22.285Z,1.95
2023-02-01T14:23:54.221Z,1.87
2023-02-01T14:26:26.469Z,1.82
2023-02-01T14:29:20.743Z,1.78
2023-02-01T14:32:16.684Z,1.76
2023-02-01T14:34:47.805Z,1.74
2023-02-01T14:37:18.764Z,1.74
2023-02-01T14:39:46.773Z,1.74
2023-02-01T14:42:45.086Z,1.74
2023-02-01T14:45:27.861Z,1.74
2023-02-01T14:48:08.188Z,1.77
2023-02-01T14:50:43.951Z,1.81
2023-02-01T14:53:14.812Z,1.83
2023-02-01T14:55:56.751Z,1.84
2023-02-01T14:58:38.115Z,1.85
2023-02-01T15:01:32.731Z,1.84
2023-02-01T15:04:19.710Z,1.85
2023-02-01T15:06:52.584Z,1.84
2023-02-01T15:09:30.288Z,1.85
2023-02-01T15:12:13.354Z,1.83
2023-02-01T15:14:50.955Z,1.83
2023-02-01T15:17:20.724Z,1.85
2023-02-01T15:19:59.132Z,1.86
2023-02-01T15:22:29.829Z,1.88
2023-02-01T15:25:01.535Z,1.91
2023-02-01T15:27:32.445Z,1.89
2023-02-01T15:30:08.893Z,1.85
2023-02-01T15:32:40.304Z,1.79
2023-02-01T15:35:47.816Z,1.76
2023-02-01T15:38:25.093Z,1.72
2023-02-01T15:41:00.900Z,1.66
2023-02-01T15:43:33.474Z,1.63
2023-02-01T15:46:03.659Z,1.60
2023-02-01T15:48:54.103Z,1.56
2023-02-01T15:51:26.996Z,1.53
2023-02-01T15:53:59.288Z,1.49
2023-02-01T15:56:37.423Z,1.41
2023-02-01T15:59:16.812Z,1.32
2023-02-01T16:01:45.393Z,1.27
2023-02-01T16:04:26.769Z,1.23
2023-02-01T16:07:02.018Z,1.17
2023-02-01T16:09:40.296Z,1.13
2023-02-01T16:12:30.308Z,1.10
2023-02-01T16:14:58.743Z,1.08
2023-02-01T16:17:26.780Z,1.08
2023-02-01T16:19:55.318Z,1.07
2023-02-01T16:22:23.261Z,1.06
2023-02-01T16:24:51.558Z,1.05
2023-02-01T16:27:19.486Z,1.04
2023-02-01T16:29:47.515Z,1.03
2023-02-01T16:32:20.198Z,1.01
2023-02-01T16:34:49.192Z,0.98
2023-02-01T16:37:21.874Z,0.95
2023-02-01T16:39:50.441Z,0.93
2023-02-01T16:42:18.714Z,0.90
2023-02-01T16:44:46.735Z,0.86
2023-02-01T16:47:23.988Z,0.83
2023-02-01T16:49:52.952Z,0.80
2023-02-01T16:52:25.065Z,0.76
2023-02-01T16:54:53.911Z,0.74
2023-02-01T16:57:24.508Z,0.71
2023-02-01T16:59:52.573Z,0.70
2023-02-01T17:02:21.932Z,0.68
2023-02-01T17:04:50.146Z,0.67
2023-02-01T17:07:19.859Z,0.66
2023-02-01T17:09:48.477Z,0.66
2023-02-01T17:12:29.472Z,0.66
2023-02-01T17:14:58.371Z,0.67
2023-02-01T17:17:38.970Z,0.67
2023-02-01T17:20:08.474Z,0.68
2023-02-01T17:22:36.570Z,0.69
2023-02-01T17:25:07.044Z,0.71
2023-02-01T17:27:35.495Z,0.71
2023-02-01T17:30:04.381Z,0.71
2023-02-01T17:32:32.300Z,0.71
2023-02-01T17:35:00.516Z,0.74
2023-02-01T17:37:34.590Z,0.78
2023-02-01T17:40:03.395Z,0.81
2023-02-01T17:42:31.477Z,0.83
2023-02-01T17:45:02.782Z,0.85
2023-02-01T17:47:30.876Z,0.89
2023-02-01T17:49:58.939Z,0.94
2023-02-01T17:52:26.870Z,0.98
2023-02-01T17:54:55.145Z,1.03
2023-02-01T17:57:23.103Z,1.07
2023-02-01T17:59:51.025Z,1.07
2023-02-01T18:02:25.807Z,1.05
2023-02-01T18:04:54.520Z,1.00
2023-02-01T18:07:22.578Z,0.96
2023-02-01T18:09:50.641Z,0.90
2023-02-01T18:12:26.503Z,0.85
2023-02-01T18:14:54.537Z,0.79
2023-02-01T18:17:22.562Z,0.74
2023-02-01T18:19:50.589Z,0.69
2023-02-01T18:22:23.353Z,0.64
2023-02-01T18:24:51.635Z,0.61
2023-02-01T18:27:19.643Z,0.60
2023-02-01T18:29:47.497Z,0.57
2023-02-01T18:32:15.539Z,0.55
2023-02-01T18:34:43.681Z,0.54
2023-02-01T18:37:11.739Z,0.54
2023-02-01T18:39:39.839Z,0.55
2023-02-01T18:42:10.444Z,0.55
2023-02-01T18:44:38.413Z,0.57
2023-02-01T18:47:06.569Z,0.58
2023-02-01T18:49:36.740Z,0.58
2023-02-01T18:52:06.700Z,0.58
2023-02-01T18:54:34.789Z,0.60
2023-02-01T18:57:03.454Z,0.64
2023-02-01T18:59:31.513Z,0.68
2023-02-01T19:01:59.600Z,0.71
2023-02-01T19:04:27.637Z,0.73
2023-02-01T19:06:56.148Z,0.75
2023-02-01T19:09:24.246Z,0.78
2023-02-01T19:11:52.310Z,0.83
2023-02-01T19:14:20.408Z,0.86
2023-02-01T19:16:50.690Z,0.88
2023-02-01T19:19:19.100Z,0.90
2023-02-01T19:21:47.124Z,0.93
2023-02-01T19:24:15.755Z,0.92
2023-02-01T19:26:45.007Z,0.90
2023-02-01T19:29:12.974Z,0.88
2023-02-01T19:31:41.160Z,0.90
2023-02-01T19:34:10.851Z,0.89
2023-02-01T19:36:42.583Z,0.87
2023-02-01T19:39:10.869Z,0.80
2023-02-01T19:41:38.936Z,0.75
2023-02-01T19:44:07.111Z,0.72
2023-02-01T19:46:35.181Z,0.64
2023-02-01T19:49:03.355Z,0.57
2023-02-01T19:51:31.313Z,0.51
2023-02-01T19:53:59.350Z,0.44
2023-02-01T19:56:27.267Z,0.40
2023-02-01T19:58:55.458Z,0.35
2023-02-01T20:01:22.549Z,0.32
2023-02-01T20:03:50.561Z,0.29
2023-02-01T20:06:19.038Z,0.27
2023-02-01T20:08:48.481Z,0.25
2023-02-01T20:11:16.527Z,0.25
2023-02-01T20:13:44.592Z,0.25
2023-02-01T20:16:12.570Z,0.25
2023-02-01T20:18:40.590Z,0.24
2023-02-01T20:21:08.584Z,0.24
2023-02-01T20:23:37.066Z,0.25
2023-02-01T20:26:07.664Z,0.26
2023-02-01T20:28:35.739Z,0.28
2023-02-01T20:31:03.822Z,0.31
2023-02-01T20:33:32.297Z,0.32
2023-02-01T20:36:00.384Z,0.35
2023-02-01T20:38:28.435Z,0.38
2023-02-01T20:41:09.056Z,0.41
2023-02-01T20:43:36.943Z,0.44
2023-02-01T20:46:05.271Z,0.47
2023-02-01T20:48:33.235Z,0.49
2023-02-01T20:51:01.372Z,0.52
2023-02-01T20:53:30.153Z,0.57
2023-02-01T20:55:58.658Z,0.61
2023-02-01T20:58:27.418Z,0.66
2023-02-01T21:00:55.436Z,0.71
2023-02-01T21:03:23.966Z,0.76
2023-02-01T21:05:56.085Z,0.79
2023-02-01T21:08:25.603Z,0.81
2023-02-01T21:11:03.382Z,0.81
2023-02-01T21:13:36.321Z,0.85
2023-02-01T21:16:08.923Z,0.87
2023-02-01T21:18:37.227Z,0.89
2023-02-01T21:21:13.045Z,0.90
2023-02-01T21:23:49.553Z,0.92
2023-02-01T21:26:23.981Z,0.91
2023-02-01T21:28:53.751Z,0.91
2023-02-01T21:31:25.691Z,0.91
2023-02-01T21:34:03.007Z,0.90
2023-02-01T21:36:36.951Z,0.89
2023-02-01T21:39:12.106Z,0.89
2023-02-01T21:41:59.204Z,0.87
2023-02-01T21:44:27.171Z,0.86
2023-02-01T21:46:58.891Z,0.85
2023-02-01T21:49:29.526Z,0.82
2023-02-01T21:51:59.049Z,0.80
2023-02-01T21:54:29.354Z,0.79
2023-02-01T21:57:00.662Z,0.79
2023-02-01T21:59:28.872Z,0.78
2023-02-01T22:01:57.557Z,0.76
2023-02-01T22:04:27.889Z,0.75
2023-02-01T22:06:56.552Z,0.73
2023-02-01T22:09:26.675Z,0.71
2023-02-01T22:11:55.890Z,0.68
2023-02-01T22:14:24.296Z,0.67
2023-02-01T22:16:53.078Z,0.66
2023-02-01T22:19:24.077Z,0.65
2023-02-01T22:21:52.632Z,0.63
2023-02-01T22:24:21.516Z,0.62
2023-02-01T22:26:50.611Z,0.61
2023-02-01T22:29:23.734Z,0.60
2023-02-01T22:31:54.112Z,0.58
2023-02-01T22:34:23.067Z,0.58
2023-02-01T22:36:51.283Z,0.57
2023-02-01T22:39:19.493Z,0.56
2023-02-01T22:41:47.837Z,0.55
2023-02-01T22:44:16.227Z,0.54
2023-02-01T22:46:46.762Z,0.55
2023-02-01T22:49:16.965Z,0.55
2023-02-01T22:51:45.110Z,0.55
2023-02-01T22:54:21.370Z,0.56
2023-02-01T22:56:50.179Z,0.57
2023-02-01T22:59:18.466Z,0.61
2023-02-01T23:01:46.490Z,0.65
2023-02-01T23:04:15.407Z,0.68
2023-02-01T23:06:43.804Z,0.71
2023-02-01T23:09:25.183Z,0.75
2023-02-01T23:11:54.663Z,0.78
2023-02-01T23:14:22.780Z,0.81
2023-02-01T23:16:51.142Z,0.83
2023-02-01T23:19:20.550Z,0.86
2023-02-01T23:21:49.592Z,0.88
2023-02-01T23:24:17.614Z,0.91
2023-02-01T23:26:45.958Z,0.92
2023-02-01T23:29:18.636Z,0.93
2023-02-01T23:31:46.911Z,0.94
2023-02-01T23:34:15.574Z,0.95
2023-02-01T23:36:43.671Z,0.96
2023-02-01T23:39:11.894Z,0.98
2023-02-01T23:41:39.946Z,1.00
2023-02-01T23:44:08.380Z,1.03
2023-02-01T23:46:40.360Z,1.06
2023-02-01T23:49:09.575Z,1.08
2023-02-01T23:51:37.835Z,1.11
2023-02-01T23:54:07.828Z,1.14
2023-02-01T23:56:41.749Z,1.16
2023-02-01T23:59:19.144Z,1.19
